Time;durP1;ratioP1;P1;durP2;ratioP2;P2;SDS_P1;SDS_P2;PMS_P1;PMS_P2;Temp;Humidity;BMP_temperature;BMP_pressure;BME280_temperature;BME280_humidity;BME280_pressure;Samples;Min_cycle;Max_cycle;Signal;HPM_P1;HPM_P2
2022/06/14 00:00:53;;;;;;;;;;;;;;;8.66;89.33;99257.16;4139113;28;20361;-71
2022/06/14 00:02:00;;;;;;;;;;;;;;;8.70;89.16;99252.56;4138779;28;20286;-71
2022/06/14 00:04:00;;;;;;;;;;;;;;;8.72;89.66;99254.97;4139201;28;20000;-71
2022/06/14 00:06:02;;;;;;;;;;;;;;;8.72;89.56;99254.97;4139787;28;20479;-71
2022/06/14 00:08:03;;;;;;;;;;;;;;;8.73;89.15;99257.38;4140026;28;20354;-71
2022/06/14 00:10:03;;;;;;;;;;;;;;;8.77;89.85;99257.50;4138680;28;19920;-71
2022/06/14 00:12:03;;;;;;;;;;;;;;;8.78;89.28;99266.59;4138846;28;19924;-71
2022/06/14 00:14:05;;;;;;;;;;;;;;;8.77;89.69;99257.50;4138545;28;19925;-71
2022/06/14 00:16:05;;;;;;;;;;;;;;;8.77;89.44;99260.25;4139354;28;20372;-71
2022/06/14 00:18:06;;;;;;;;;;;;;;;8.74;89.49;99258.19;4139767;28;19932;-71
2022/06/14 00:20:06;;;;;;;;;;;;;;;8.77;89.01;99256.66;4138118;28;19989;-71
2022/06/14 00:22:08;;;;;;;;;;;;;;;8.76;88.65;99266.91;4138387;28;20405;-71
2022/06/14 00:24:08;;;;;;;;;;;;;;;8.75;88.55;99259.78;4138117;28;20171;-71
2022/06/14 00:26:11;;;;;;;;;;;;;;;8.77;88.79;99262.19;4139923;28;20028;-71
2022/06/14 00:28:14;;;;;;;;;;;;;;;8.79;86.38;99262.66;4137951;28;20495;-71
2022/06/14 00:30:14;;;;;;;;;;;;;;;8.81;86.21;99257.59;4137666;28;20334;-71
2022/06/14 00:32:14;;;;;;;;;;;;;;;8.82;87.11;99254.50;4140182;28;20401;-71
2022/06/14 00:34:15;;;;;;;;;;;;;;;8.82;86.72;99262.75;4140819;28;19917;-71
2022/06/14 00:36:23;;;;;;;;;;;;;;;8.78;85.68;99256.34;4138354;28;19925;-71
2022/06/14 00:38:24;;;;;;;;;;;;;;;8.79;85.12;99257.94;4138112;28;20189;-71
2022/06/14 00:40:26;;;;;;;;;;;;;;;8.82;84.00;99268.28;4138826;28;19921;-71
2022/06/14 00:42:26;;;;;;;;;;;;;;;8.79;84.82;99265.44;4138477;28;19925;-71
2022/06/14 00:44:27;;;;;;;;;;;;;;;8.76;84.40;99263.34;4139133;28;19913;-71
2022/06/14 00:46:38;;;;;;;;;;;;;;;8.71;84.37;99265.19;4138546;28;19956;-71
2022/06/14 00:48:40;;;;;;;;;;;;;;;8.63;84.56;99268.09;4138191;28;19920;-71
2022/06/14 00:50:55;;;;;;;;;;;;;;;8.54;84.87;99268.22;4138597;28;20385;-71
2022/06/14 00:52:59;;;;;;;;;;;;;;;8.49;84.73;99268.41;4138712;28;20280;-71
2022/06/14 00:55:07;;;;;;;;;;;;;;;8.41;85.57;99264.63;4138766;28;19921;-71
2022/06/14 00:57:14;;;;;;;;;;;;;;;8.34;86.04;99267.13;4138514;28;20301;-71
2022/06/14 00:59:21;;;;;;;;;;;;;;;8.28;87.37;99268.50;4137692;28;19918;-71
2022/06/14 01:01:23;;;;;;;;;;;;;;;8.18;88.23;99274.44;4138412;28;19921;-71
2022/06/14 01:03:24;;;;;;;;;;;;;;;8.12;87.81;99264.81;4138353;28;19917;-71
2022/06/14 01:05:26;;;;;;;;;;;;;;;8.10;87.87;99267.09;4138788;28;19928;-71
2022/06/14 01:07:29;;;;;;;;;;;;;;;8.05;88.89;99270.91;4138610;28;20019;-71
2022/06/14 01:09:35;;;;;;;;;;;;;;;7.98;90.02;99273.41;4137752;28;19917;-71
2022/06/14 01:11:44;;;;;;;;;;;;;;;7.96;89.36;99272.16;4138107;28;20383;-71
2022/06/14 01:13:44;;;;;;;;;;;;;;;7.92;90.36;99274.75;4138282;28;20008;-71
2022/06/14 01:15:48;;;;;;;;;;;;;;;7.87;90.37;99270.28;4139052;28;19956;-71
2022/06/14 01:17:50;;;;;;;;;;;;;;;7.88;90.38;99276.59;4138366;28;20102;-71
2022/06/14 01:19:51;;;;;;;;;;;;;;;7.96;88.31;99270.19;4137450;28;20250;-71
2022/06/14 01:21:54;;;;;;;;;;;;;;;8.10;87.05;99267.91;4138190;28;19959;-71
2022/06/14 01:23:54;;;;;;;;;;;;;;;8.26;85.61;99279.06;4138200;28;20527;-71
2022/06/14 01:25:57;;;;;;;;;;;;;;;8.36;84.36;99283.38;4138773;28;20388;-71
2022/06/14 01:28:00;;;;;;;;;;;;;;;8.28;84.69;99279.53;4138181;28;20024;-71
2022/06/14 01:30:04;;;;;;;;;;;;;;;8.16;86.22;99285.84;4137309;28;19913;-71
2022/06/14 01:32:07;;;;;;;;;;;;;;;7.98;87.12;99289.94;4137984;28;20357;-71
2022/06/14 01:34:08;;;;;;;;;;;;;;;7.90;86.21;99288.06;4136766;28;19914;-71
2022/06/14 01:36:12;;;;;;;;;;;;;;;7.82;87.44;99286.22;4139341;28;19956;-71
2022/06/14 01:38:14;;;;;;;;;;;;;;;7.73;89.05;99286.31;4137643;28;20035;-71
2022/06/14 01:40:15;;;;;;;;;;;;;;;7.63;90.12;99297.75;4136193;28;19964;-71
2022/06/14 01:42:23;;;;;;;;;;;;;;;7.57;89.04;99288.09;4137782;28;19925;-71
2022/06/14 01:44:43;;;;;;;;;;;;;;;7.53;89.71;99289.88;4138434;28;19987;-71
2022/06/14 01:47:02;;;;;;;;;;;;;;;7.48;89.45;99279.09;4137257;28;20250;-71
2022/06/14 01:51:51;;;;;;;;;;;;;;;7.58;87.64;99275.91;4137508;28;20003;-71
2022/06/14 01:54:09;;;;;;;;;;;;;;;7.61;86.70;99278.00;4137279;28;20389;-71
2022/06/14 01:56:13;;;;;;;;;;;;;;;7.67;85.88;99275.84;4138790;28;20437;-71
2022/06/14 01:58:22;;;;;;;;;;;;;;;7.65;86.00;99272.63;4136513;28;20468;-71
2022/06/14 02:00:26;;;;;;;;;;;;;;;7.54;86.02;99275.81;4138334;28;19917;-71
2022/06/14 02:02:42;;;;;;;;;;;;;;;7.42;87.20;99277.69;4136878;28;20266;-71
2022/06/14 02:05:01;;;;;;;;;;;;;;;7.33;87.65;99280.53;4137217;28;19953;-71
2022/06/14 02:07:02;;;;;;;;;;;;;;;7.28;87.58;99283.47;4137825;28;19932;-71
2022/06/14 02:09:08;;;;;;;;;;;;;;;7.26;88.62;99283.00;4137076;28;20119;-71
2022/06/14 02:11:11;;;;;;;;;;;;;;;7.22;88.77;99290.34;4137159;28;19921;-71
2022/06/14 02:13:18;;;;;;;;;;;;;;;7.16;90.60;99288.91;4136620;28;19933;-71
2022/06/14 02:15:24;;;;;;;;;;;;;;;7.09;91.75;99292.19;4137668;28;19913;-71
2022/06/14 02:17:28;;;;;;;;;;;;;;;7.04;93.93;99289.66;4137534;28;19914;-71
2022/06/14 02:19:32;;;;;;;;;;;;;;;7.01;93.91;99295.81;4136918;28;19917;-71
2022/06/14 02:21:38;;;;;;;;;;;;;;;6.97;93.55;99289.38;4138107;28;20348;-71
2022/06/14 02:23:42;;;;;;;;;;;;;;;6.93;93.44;99288.44;4137913;28;20444;-71
2022/06/14 02:25:42;;;;;;;;;;;;;;;6.91;91.71;99277.78;4137379;28;19990;-71
2022/06/14 02:27:59;;;;;;;;;;;;;;;6.97;90.03;99278.38;4137180;28;19913;-71
2022/06/14 02:30:25;;;;;;;;;;;;;;;7.00;88.74;99278.50;4137805;28;20385;-71
2022/06/14 02:32:32;;;;;;;;;;;;;;;7.00;88.96;99272.19;4137562;28;20272;-71
2022/06/14 02:34:35;;;;;;;;;;;;;;;7.06;89.57;99268.13;4137576;28;20277;-71
2022/06/14 02:36:38;;;;;;;;;;;;;;;7.03;88.97;99279.78;4137251;28;20258;-71
2022/06/14 02:39:05;;;;;;;;;;;;;;;7.00;89.53;99277.69;4136893;28;19921;-70
2022/06/14 02:41:15;;;;;;;;;;;;;;;7.14;86.59;99267.25;4138095;28;19932;-70
2022/06/14 02:43:26;;;;;;;;;;;;;;;7.26;86.14;99261.78;4137210;28;20345;-70
2022/06/14 02:45:29;;;;;;;;;;;;;;;7.24;85.62;99266.03;4136689;28;19913;-71
2022/06/14 02:47:42;;;;;;;;;;;;;;;7.25;85.37;99279.44;4138286;28;20368;-71
2022/06/14 02:49:49;;;;;;;;;;;;;;;7.26;84.85;99275.56;4137224;28;19921;-71
2022/06/14 02:51:52;;;;;;;;;;;;;;;7.17;85.52;99277.56;4137538;28;19997;-71
2022/06/14 02:54:04;;;;;;;;;;;;;;;7.09;86.13;99281.19;4138112;28;20683;-71
2022/06/14 02:56:11;;;;;;;;;;;;;;;6.91;86.93;99276.97;4140572;28;20443;-71
2022/06/14 02:58:17;;;;;;;;;;;;;;;6.74;87.68;99280.63;4141688;28;20199;-71
2022/06/14 03:00:19;;;;;;;;;;;;;;;6.65;87.89;99277.94;4139472;28;19960;-71
2022/06/14 03:02:22;;;;;;;;;;;;;;;6.61;88.50;99279.72;4140802;28;20035;-71
2022/06/14 03:04:26;;;;;;;;;;;;;;;6.64;88.65;99273.56;4140007;28;19940;-71
2022/06/14 03:06:35;;;;;;;;;;;;;;;6.61;88.51;99287.16;4141503;28;19914;-71
2022/06/14 03:08:48;;;;;;;;;;;;;;;6.50;89.78;99284.00;4141237;28;19932;-71
2022/06/14 03:10:58;;;;;;;;;;;;;;;6.40;90.37;99290.69;4139152;28;20487;-71
2022/06/14 03:13:12;;;;;;;;;;;;;;;6.40;89.67;99285.19;4140211;28;20014;-71
2022/06/14 03:15:32;;;;;;;;;;;;;;;6.48;89.37;99295.34;4141722;28;20075;-71
2022/06/14 03:17:53;;;;;;;;;;;;;;;6.51;89.14;99291.09;4141152;28;19956;-71
2022/06/14 03:20:10;;;;;;;;;;;;;;;6.53;88.76;99285.28;4138837;28;19936;-71
2022/06/14 03:22:15;;;;;;;;;;;;;;;6.64;88.35;99290.06;4139974;28;19913;-71
2022/06/14 03:24:26;;;;;;;;;;;;;;;6.60;88.33;99283.63;4140077;28;20476;-71
2022/06/14 03:26:29;;;;;;;;;;;;;;;6.48;89.03;99292.59;4140101;28;20107;-71
2022/06/14 03:28:41;;;;;;;;;;;;;;;6.43;89.17;99291.97;4139050;28;20275;-71
2022/06/14 03:30:51;;;;;;;;;;;;;;;6.47;88.72;99298.41;4138420;28;19932;-71
2022/06/14 03:33:01;;;;;;;;;;;;;;;6.58;87.86;99293.34;4139111;28;19917;-71
2022/06/14 03:35:23;;;;;;;;;;;;;;;6.55;88.74;99289.31;4138685;28;19917;-71
2022/06/14 03:37:24;;;;;;;;;;;;;;;6.53;88.77;99291.56;4138228;28;19971;-71
2022/06/14 03:39:28;;;;;;;;;;;;;;;6.48;88.51;99287.09;4138353;28;20312;-71
2022/06/14 03:41:31;;;;;;;;;;;;;;;6.38;90.30;99290.22;4138678;28;19932;-71
2022/06/14 03:43:31;;;;;;;;;;;;;;;6.30;89.91;99285.56;4138592;28;19928;-71
2022/06/14 03:45:51;;;;;;;;;;;;;;;6.27;90.13;99282.66;4137916;28;20318;-71
2022/06/14 03:47:51;;;;;;;;;;;;;;;6.27;90.23;99283.44;4139036;28;19929;-71
2022/06/14 03:49:54;;;;;;;;;;;;;;;6.30;90.01;99284.75;4137951;28;19913;-71
2022/06/14 03:52:13;;;;;;;;;;;;;;;6.36;90.49;99283.41;4138241;28;19917;-71
2022/06/14 03:54:19;;;;;;;;;;;;;;;6.43;89.18;99278.22;4138095;28;20032;-71
2022/06/14 03:56:33;;;;;;;;;;;;;;;6.40;89.64;99287.94;4137992;28;20409;-71
2022/06/14 03:58:51;;;;;;;;;;;;;;;6.40;90.65;99290.69;4138372;28;19917;-71
2022/06/14 04:00:53;;;;;;;;;;;;;;;6.39;91.80;99291.81;4138897;28;19929;-71
2022/06/14 04:02:59;;;;;;;;;;;;;;;6.38;92.17;99294.91;4137935;28;19914;-71
2022/06/14 04:05:06;;;;;;;;;;;;;;;6.40;92.15;99295.38;4137411;28;19952;-71
2022/06/14 04:07:15;;;;;;;;;;;;;;;6.43;90.27;99297.44;4138470;28;19920;-71
2022/06/14 04:09:15;;;;;;;;;;;;;;;6.45;90.27;99306.16;4137792;28;19921;-71
2022/06/14 04:11:34;;;;;;;;;;;;;;;6.48;90.37;99305.53;4138615;28;20004;-71
2022/06/14 04:13:34;;;;;;;;;;;;;;;6.48;91.30;99303.56;4138378;28;19924;-71
2022/06/14 04:15:41;;;;;;;;;;;;;;;6.50;92.71;99307.94;4137423;28;19953;-71
2022/06/14 04:17:41;;;;;;;;;;;;;;;6.51;92.38;99304.84;4138551;28;19913;-71
2022/06/14 04:19:50;;;;;;;;;;;;;;;6.51;93.51;99310.34;4136107;28;19913;-71
2022/06/14 04:21:53;;;;;;;;;;;;;;;6.57;93.97;99306.28;4134141;28;19921;-71
2022/06/14 04:24:03;;;;;;;;;;;;;;;6.65;93.27;99307.38;4133944;28;20288;-71
2022/06/14 04:26:09;;;;;;;;;;;;;;;6.79;92.15;99310.72;4139533;28;20311;-71
2022/06/14 04:28:25;;;;;;;;;;;;;;;6.91;90.79;99312.72;4139029;28;19917;-71
2022/06/14 04:30:28;;;;;;;;;;;;;;;7.07;89.58;99316.50;4139500;28;19917;-71
2022/06/14 04:32:33;;;;;;;;;;;;;;;7.25;87.66;99309.72;4138545;28;19920;-71
2022/06/14 04:34:41;;;;;;;;;;;;;;;7.42;87.79;99308.78;4139234;28;19917;-71
2022/06/14 04:36:45;;;;;;;;;;;;;;;7.57;85.87;99307.34;4137307;28;20304;-71
2022/06/14 04:38:56;;;;;;;;;;;;;;;7.69;86.49;99301.88;4136530;28;20387;-71
2022/06/14 04:40:59;;;;;;;;;;;;;;;7.77;87.29;99302.94;4138818;28;19962;-71
2022/06/14 04:43:02;;;;;;;;;;;;;;;7.84;86.57;99295.75;4137127;28;19921;-71
2022/06/14 04:45:25;;;;;;;;;;;;;;;7.94;85.50;99290.94;4139269;28;19963;-71
2022/06/14 04:47:33;;;;;;;;;;;;;;;8.03;85.53;99300.75;4138561;28;19982;-70
2022/06/14 04:49:42;;;;;;;;;;;;;;;8.13;85.32;99299.50;4137637;28;20411;-70
2022/06/14 04:51:44;;;;;;;;;;;;;;;8.24;84.90;99306.19;4138484;28;19917;-71
2022/06/14 04:53:49;;;;;;;;;;;;;;;8.35;85.25;99296.34;4139575;28;20193;-71
2022/06/14 04:55:56;;;;;;;;;;;;;;;8.46;84.64;99304.97;4138694;28;20344;-71
2022/06/14 04:58:00;;;;;;;;;;;;;;;8.54;86.35;99301.31;4137720;28;19913;-71
2022/06/14 05:00:03;;;;;;;;;;;;;;;8.61;86.68;99293.25;4137975;28;19913;-71
2022/06/14 05:02:09;;;;;;;;;;;;;;;8.68;86.42;99301.75;4136785;28;20077;-71
2022/06/14 05:04:12;;;;;;;;;;;;;;;8.75;85.09;99292.88;4135104;28;19925;-71
2022/06/14 05:07:42;;;;;;;;;;;;;;;8.90;85.58;99292.19;4201620;27;20023;-70
2022/06/14 05:09:59;;;;;;;;;;;;;;;9.00;86.19;99291.72;4187181;28;19928;-70
2022/06/14 05:12:12;;;;;;;;;;;;;;;9.12;86.29;99298.38;4190931;28;19920;-70
2022/06/14 05:14:21;;;;;;;;;;;;;;;9.24;87.07;99307.41;4186150;28;20352;-70
2022/06/14 05:16:29;;;;;;;;;;;;;;;9.36;87.28;99300.28;4186445;28;19917;-70
2022/06/14 05:18:50;;;;;;;;;;;;;;;9.45;87.04;99301.75;4185943;28;20272;-70
2022/06/14 05:21:06;;;;;;;;;;;;;;;9.49;86.16;99301.81;4189217;28;19936;-70
2022/06/14 05:23:15;;;;;;;;;;;;;;;9.54;86.23;99301.59;4191580;28;20283;-70
2022/06/14 05:25:15;;;;;;;;;;;;;;;9.63;85.28;99298.69;4187764;28;19943;-70
2022/06/14 05:27:15;;;;;;;;;;;;;;;9.70;84.82;99299.69;4191314;28;20404;-70
2022/06/14 05:29:21;;;;;;;;;;;;;;;9.80;84.99;99312.19;4186756;28;19959;-70
2022/06/14 05:31:40;;;;;;;;;;;;;;;9.88;84.80;99299.38;4185635;28;20076;-70
2022/06/14 05:33:43;;;;;;;;;;;;;;;10.00;84.62;99300.09;4186389;28;20014;-70
2022/06/14 05:35:55;;;;;;;;;;;;;;;10.14;86.85;99285.84;4185311;28;19996;-70
2022/06/14 05:38:08;;;;;;;;;;;;;;;10.28;84.11;99300.09;4186269;28;19999;-70
2022/06/14 05:40:12;;;;;;;;;;;;;;;10.45;84.46;99300.88;4185290;28;20361;-70
2022/06/14 05:42:16;;;;;;;;;;;;;;;10.57;83.04;99292.47;4184793;28;19916;-70
2022/06/14 05:44:25;;;;;;;;;;;;;;;10.71;82.90;99292.84;4185324;28;20039;-70
2022/06/14 05:46:38;;;;;;;;;;;;;;;10.86;81.98;99297.53;4186338;28;20122;-70
2022/06/14 05:48:51;;;;;;;;;;;;;;;10.94;83.00;99290.22;4190270;28;20422;-70
2022/06/14 05:50:54;;;;;;;;;;;;;;;11.02;82.26;99297.50;4184486;28;20257;-70
2022/06/14 05:52:54;;;;;;;;;;;;;;;11.06;81.99;99301.16;4191052;28;19951;-70
2022/06/14 05:55:10;;;;;;;;;;;;;;;11.20;82.11;99295.94;4190404;28;19917;-70
2022/06/14 05:57:13;;;;;;;;;;;;;;;11.33;82.09;99298.56;4185188;28;19921;-70
2022/06/14 05:59:13;;;;;;;;;;;;;;;11.40;81.20;99298.72;4187677;28;19916;-70
2022/06/14 06:01:18;;;;;;;;;;;;;;;11.49;79.36;99291.00;4185695;28;19928;-70
2022/06/14 06:03:30;;;;;;;;;;;;;;;11.52;79.79;99284.75;4185093;28;19921;-70
2022/06/14 06:05:39;;;;;;;;;;;;;;;11.60;80.08;99292.03;4186248;28;19917;-70
2022/06/14 06:07:44;;;;;;;;;;;;;;;11.66;79.85;99298.06;4190146;28;19927;-70
2022/06/14 06:09:49;;;;;;;;;;;;;;;11.74;80.26;99295.06;4188073;28;19916;-70
2022/06/14 06:11:54;;;;;;;;;;;;;;;11.83;79.04;99292.09;4185298;28;19917;-70
2022/06/14 06:14:00;;;;;;;;;;;;;;;11.88;78.25;99293.78;4184546;28;19925;-70
2022/06/14 06:16:03;;;;;;;;;;;;;;;11.94;76.77;99295.09;4186052;28;19921;-70
2022/06/14 06:18:07;;;;;;;;;;;;;;;11.96;77.67;99303.84;4179817;28;19917;-70
2022/06/14 06:20:29;;;;;;;;;;;;;;;11.98;76.34;99305.06;4173602;28;20039;-70
2022/06/14 06:22:38;;;;;;;;;;;;;;;11.98;76.91;99301.50;4175107;28;19917;-70
2022/06/14 06:24:46;;;;;;;;;;;;;;;12.01;76.27;99306.34;4175500;28;19920;-70
2022/06/14 06:26:50;;;;;;;;;;;;;;;12.12;76.16;99303.75;4175466;28;20242;-70
2022/06/14 06:28:56;;;;;;;;;;;;;;;12.29;76.28;99306.84;4173523;28;19916;-70
2022/06/14 06:31:15;;;;;;;;;;;;;;;12.45;74.90;99294.81;4174717;28;19924;-70
2022/06/14 06:33:17;;;;;;;;;;;;;;;12.66;76.86;99303.50;4179674;28;19939;-70
2022/06/14 06:35:17;;;;;;;;;;;;;;;12.79;74.86;99299.34;4174432;28;20280;-70
2022/06/14 06:37:21;;;;;;;;;;;;;;;12.81;71.28;99294.22;4177245;28;19943;-70
2022/06/14 06:39:27;;;;;;;;;;;;;;;12.81;71.09;99294.22;4174614;28;19920;-70
2022/06/14 06:41:50;;;;;;;;;;;;;;;12.88;72.26;99287.97;4174014;28;19917;-70
2022/06/14 06:43:51;;;;;;;;;;;;;;;12.99;73.46;99293.69;4174268;28;19951;-70
2022/06/14 06:45:52;;;;;;;;;;;;;;;13.08;71.73;99286.69;4173520;28;19920;-70
2022/06/14 06:48:04;;;;;;;;;;;;;;;13.16;71.85;99298.72;4173892;28;19942;-71
2022/06/14 06:50:10;;;;;;;;;;;;;;;13.18;70.12;99290.81;4173508;28;19932;-71
2022/06/14 06:52:11;;;;;;;;;;;;;;;13.20;70.63;99292.03;4173587;28;19916;-71
2022/06/14 06:54:26;;;;;;;;;;;;;;;13.19;71.18;99298.78;4180183;28;19939;-71
2022/06/14 06:56:35;;;;;;;;;;;;;;;13.22;71.18;99294.44;4172934;28;19978;-71
2022/06/14 06:58:51;;;;;;;;;;;;;;;13.30;71.90;99292.56;4179924;28;20191;-71
2022/06/14 07:00:56;;;;;;;;;;;;;;;13.37;72.11;99296.25;4174384;28;19927;-71
2022/06/14 07:02:59;;;;;;;;;;;;;;;13.41;71.38;99307.44;4172825;28;20015;-71
2022/06/14 07:05:06;;;;;;;;;;;;;;;13.44;71.70;99296.34;4176579;28;19999;-71
2022/06/14 07:07:11;;;;;;;;;;;;;;;13.52;71.70;99299.22;4186200;28;20005;-70
2022/06/14 07:09:18;;;;;;;;;;;;;;;13.61;71.55;99291.38;4189750;28;19931;-70
2022/06/14 07:11:20;;;;;;;;;;;;;;;13.71;71.49;99291.50;4189703;28;19920;-70
2022/06/14 07:13:27;;;;;;;;;;;;;;;13.82;69.83;99291.66;4190358;28;19916;-70
2022/06/14 07:15:31;;;;;;;;;;;;;;;13.92;68.37;99290.16;4189825;28;19924;-71
2022/06/14 07:17:44;;;;;;;;;;;;;;;14.00;67.25;99284.28;4189979;28;19999;-71
2022/06/14 07:19:47;;;;;;;;;;;;;;;14.12;67.72;99286.00;4189227;28;19959;-71
2022/06/14 07:21:52;;;;;;;;;;;;;;;14.25;67.81;99292.91;4190788;28;20372;-71
2022/06/14 07:24:00;;;;;;;;;;;;;;;14.37;66.69;99288.22;4189367;28;20285;-71
2022/06/14 07:26:05;;;;;;;;;;;;;;;14.44;66.20;99288.28;4189224;28;19927;-71
2022/06/14 07:28:15;;;;;;;;;;;;;;;14.51;66.55;99286.41;4190117;28;19923;-70
2022/06/14 07:30:23;;;;;;;;;;;;;;;14.49;64.93;99285.19;4188974;28;19924;-70
2022/06/14 07:32:27;;;;;;;;;;;;;;;14.54;65.57;99285.63;4190017;28;19962;-70
2022/06/14 07:34:28;;;;;;;;;;;;;;;14.59;65.48;99276.91;4188895;28;19959;-70
2022/06/14 07:36:42;;;;;;;;;;;;;;;14.60;64.19;99277.72;4190898;28;20485;-71
2022/06/14 07:38:59;;;;;;;;;;;;;;;14.65;63.58;99280.16;4189119;28;20267;-71
2022/06/14 07:41:34;;;;;;;;;;;;;;;14.70;64.50;99276.19;4190132;28;20284;-71
2022/06/14 07:43:37;;;;;;;;;;;;;;;14.76;64.55;99274.66;4135886;28;20102;-71
2022/06/14 07:45:39;;;;;;;;;;;;;;;14.77;64.17;99274.25;4166278;28;19916;-71
2022/06/14 07:47:48;;;;;;;;;;;;;;;14.84;63.29;99274.31;4171001;28;20339;-71
2022/06/14 07:50:02;;;;;;;;;;;;;;;14.82;62.74;99275.91;4189521;28;19916;-71
2022/06/14 07:52:09;;;;;;;;;;;;;;;14.92;60.17;99277.16;4188622;28;20188;-71
2022/06/14 07:54:22;;;;;;;;;;;;;;;14.99;61.42;99268.84;4188152;28;19917;-71
2022/06/14 07:56:28;;;;;;;;;;;;;;;15.02;60.77;99270.84;4189910;28;19924;-71
2022/06/14 07:58:34;;;;;;;;;;;;;;;15.07;61.15;99271.28;4189253;28;19917;-71
2022/06/14 08:03:15;;;;;;;;;;;;;;;15.30;61.47;99268.22;4188953;28;20102;-71
2022/06/14 08:05:19;;;;;;;;;;;;;;;15.40;61.03;99266.69;4189266;28;19916;-71
2022/06/14 08:07:19;;;;;;;;;;;;;;;15.40;59.63;99263.91;4188866;28;20118;-71
2022/06/14 08:09:42;;;;;;;;;;;;;;;15.57;58.84;99270.75;4187875;28;19916;-71
2022/06/14 08:11:48;;;;;;;;;;;;;;;15.56;58.47;99272.75;4188691;28;19927;-71
2022/06/14 08:14:00;;;;;;;;;;;;;;;15.57;58.14;99270.75;4189118;28;20380;-71
2022/06/14 08:16:02;;;;;;;;;;;;;;;15.61;58.78;99271.56;4189648;28;19982;-71
2022/06/14 08:18:21;;;;;;;;;;;;;;;15.60;57.24;99267.16;4189297;28;19913;-71
2022/06/14 08:20:22;;;;;;;;;;;;;;;15.60;58.19;99265.16;4191607;28;20028;-71
2022/06/14 08:22:34;;;;;;;;;;;;;;;15.78;58.50;99267.25;4187935;28;19967;-71
2022/06/14 08:24:38;;;;;;;;;;;;;;;15.76;56.53;99264.06;4191956;28;19919;-71
2022/06/14 08:26:42;;;;;;;;;;;;;;;15.87;56.05;99262.88;4188479;28;19999;-71
2022/06/14 08:28:51;;;;;;;;;;;;;;;15.99;54.71;99267.31;4188919;28;20305;-71
2022/06/14 08:30:56;;;;;;;;;;;;;;;16.12;54.48;99262.94;4188945;28;20356;-71
2022/06/14 08:33:13;;;;;;;;;;;;;;;16.17;52.74;99264.56;4192724;28;19912;-71
2022/06/14 08:35:16;;;;;;;;;;;;;;;16.21;53.03;99266.16;4188512;28;19920;-71
2022/06/14 08:37:16;;;;;;;;;;;;;;;16.25;53.01;99266.16;4194217;28;19920;-71
2022/06/14 08:39:20;;;;;;;;;;;;;;;16.25;52.86;99269.75;4187313;28;19947;-71
2022/06/14 08:41:39;;;;;;;;;;;;;;;16.34;53.25;99260.19;4189341;28;20708;-71
2022/06/14 08:43:46;;;;;;;;;;;;;;;16.38;54.36;99258.97;4189720;28;20430;-71
2022/06/14 08:45:56;;;;;;;;;;;;;;;16.48;54.42;99257.41;4187429;28;20162;-71
2022/06/14 08:47:59;;;;;;;;;;;;;;;16.54;54.40;99262.19;4189318;28;20376;-71
2022/06/14 08:50:08;;;;;;;;;;;;;;;16.66;52.76;99257.41;4188167;28;20752;-71
2022/06/14 08:52:21;;;;;;;;;;;;;;;16.64;51.21;99259.81;4187078;28;19924;-71
2022/06/14 08:54:24;;;;;;;;;;;;;;;16.64;50.98;99252.22;4189101;28;19920;-71
2022/06/14 08:56:27;;;;;;;;;;;;;;;16.71;50.40;99252.22;4188299;28;20357;-71
2022/06/14 08:58:50;;;;;;;;;;;;;;;16.73;50.82;99244.25;4187749;28;19917;-71
2022/06/14 09:01:09;;;;;;;;;;;;;;;16.84;50.92;99247.81;4191721;28;19916;-71
2022/06/14 09:03:12;;;;;;;;;;;;;;;16.81;50.43;99247.84;4187963;28;19920;-71
2022/06/14 09:05:31;;;;;;;;;;;;;;;17.04;52.54;99256.56;4189880;28;19917;-71
2022/06/14 09:07:51;;;;;;;;;;;;;;;17.15;48.40;99252.97;4192179;28;20433;-71
2022/06/14 09:10:10;;;;;;;;;;;;;;;16.84;48.38;99244.25;4188043;28;19920;-71
2022/06/14 09:12:28;;;;;;;;;;;;;;;17.00;49.11;99239.00;4187866;28;20026;-71
2022/06/14 09:14:29;;;;;;;;;;;;;;;16.93;49.00;99247.41;4188546;28;19917;-72
2022/06/14 09:16:48;;;;;;;;;;;;;;;16.92;49.39;99245.81;4170187;28;20254;-71
2022/06/14 09:18:53;;;;;;;;;;;;;;;17.14;50.02;99238.19;4191918;28;19916;-71
2022/06/14 09:20:54;;;;;;;;;;;;;;;17.32;50.60;99235.34;4187630;28;19966;-71
2022/06/14 09:22:54;;;;;;;;;;;;;;;17.46;51.34;99240.88;4191999;28;19940;-71
2022/06/14 09:25:03;;;;;;;;;;;;;;;17.56;50.94;99239.25;4189246;28;19927;-71
2022/06/14 09:27:08;;;;;;;;;;;;;;;17.61;49.13;99225.59;4188413;28;19955;-71
2022/06/14 09:29:27;;;;;;;;;;;;;;;17.75;50.93;99227.56;4187062;28;19916;-71
2022/06/14 09:31:34;;;;;;;;;;;;;;;17.86;49.75;99233.91;4192439;28;20352;-72
2022/06/14 09:33:48;;;;;;;;;;;;;;;17.91;48.32;99225.06;4189112;28;19917;-71
2022/06/14 09:35:57;;;;;;;;;;;;;;;17.80;47.44;99224.34;4188075;28;20434;-71
2022/06/14 09:37:58;;;;;;;;;;;;;;;17.76;48.33;99229.16;4187778;28;20271;-71
2022/06/14 09:39:58;;;;;;;;;;;;;;;17.75;47.94;99240.78;4187404;28;20376;-71
2022/06/14 09:42:16;;;;;;;;;;;;;;;17.32;48.04;99233.34;4187978;28;20050;-71
2022/06/14 09:44:20;;;;;;;;;;;;;;;17.19;49.44;99228.56;4188740;28;20457;-71
2022/06/14 09:46:39;;;;;;;;;;;;;;;17.34;49.95;99221.75;4190782;28;20323;-71
2022/06/14 09:48:56;;;;;;;;;;;;;;;17.33;49.52;99217.34;4188993;28;19916;-71
2022/06/14 09:51:15;;;;;;;;;;;;;;;17.46;48.88;99217.69;4188420;28;20356;-71
2022/06/14 09:53:40;;;;;;;;;;;;;;;17.59;48.85;99221.63;4191222;28;19916;-71
2022/06/14 09:55:59;;;;;;;;;;;;;;;17.89;49.72;99224.69;4191226;28;20002;-71
2022/06/14 09:58:11;;;;;;;;;;;;;;;18.06;48.08;99227.78;4190142;28;20669;-71
2022/06/14 10:00:16;;;;;;;;;;;;;;;17.77;47.38;99222.34;4192002;28;20673;-71
2022/06/14 10:02:24;;;;;;;;;;;;;;;17.93;47.49;99233.06;4192055;28;19978;-71
2022/06/14 10:04:30;;;;;;;;;;;;;;;18.05;46.88;99223.41;4191052;28;19923;-71
2022/06/14 10:06:34;;;;;;;;;;;;;;;18.17;47.22;99223.69;4190220;28;19928;-71
2022/06/14 10:08:34;;;;;;;;;;;;;;;18.18;47.47;99211.28;4190045;28;19961;-71
2022/06/14 10:10:47;;;;;;;;;;;;;;;18.08;46.07;99216.97;4191410;28;19971;-71
2022/06/14 10:12:54;;;;;;;;;;;;;;;18.26;47.56;99209.22;4194198;28;20372;-71
2022/06/14 10:15:03;;;;;;;;;;;;;;;18.36;47.13;99205.53;4191210;28;19939;-71
2022/06/14 10:17:18;;;;;;;;;;;;;;;18.42;46.59;99201.09;4190177;28;19917;-71
2022/06/14 10:19:21;;;;;;;;;;;;;;;18.38;46.76;99205.94;4190624;28;19930;-71
2022/06/14 10:21:25;;;;;;;;;;;;;;;18.33;46.52;99206.38;4190539;28;19920;-71
2022/06/14 10:23:47;;;;;;;;;;;;;;;17.94;46.61;99201.84;4190929;28;20491;-71
2022/06/14 10:28:29;;;;;;;;;;;;;;;18.45;46.74;99202.25;4185618;28;19938;-71
2022/06/14 10:30:31;;;;;;;;;;;;;;;18.50;45.46;99199.81;4190650;28;20413;-71
2022/06/14 10:32:32;;;;;;;;;;;;;;;18.41;45.63;99193.09;4189714;28;19916;-71
2022/06/14 10:34:35;;;;;;;;;;;;;;;18.30;45.82;99200.81;4190450;28;20564;-71
2022/06/14 10:36:42;;;;;;;;;;;;;;;18.26;46.53;99200.81;4193621;28;20115;-71
2022/06/14 10:38:51;;;;;;;;;;;;;;;18.56;45.63;99202.19;4193369;28;19917;-71
2022/06/14 10:40:54;;;;;;;;;;;;;;;18.46;45.12;99193.47;4191453;28;19920;-71
2022/06/14 10:43:00;;;;;;;;;;;;;;;18.47;44.74;99195.06;4190135;28;20278;-71
2022/06/14 10:45:19;;;;;;;;;;;;;;;18.54;45.84;99194.19;4191238;28;20045;-71
2022/06/14 10:47:19;;;;;;;;;;;;;;;18.62;44.74;99204.13;4190011;28;20031;-71
2022/06/14 10:49:19;;;;;;;;;;;;;;;18.78;44.75;99189.56;4188949;28;20000;-71
2022/06/14 10:51:38;;;;;;;;;;;;;;;18.78;44.46;99193.19;4191491;28;20227;-71
2022/06/14 10:53:44;;;;;;;;;;;;;;;18.90;45.07;99191.84;4190221;28;19927;-71
2022/06/14 10:55:44;;;;;;;;;;;;;;;18.85;43.44;99194.31;4192365;28;19920;-71
2022/06/14 10:57:50;;;;;;;;;;;;;;;18.87;44.17;99186.31;4190843;28;19954;-71
2022/06/14 10:59:50;;;;;;;;;;;;;;;18.97;45.04;99185.38;4190039;28;20272;-71
2022/06/14 11:01:57;;;;;;;;;;;;;;;19.13;44.91;99191.22;4189920;28;20003;-71
2022/06/14 11:04:16;;;;;;;;;;;;;;;19.09;42.91;99188.44;4193104;28;20008;-71
2022/06/14 11:06:29;;;;;;;;;;;;;;;19.00;44.32;99179.72;4190232;28;20339;-71
2022/06/14 11:08:56;;;;;;;;;;;;;;;19.04;44.44;99177.69;4189077;28;19916;-70
2022/06/14 11:10:59;;;;;;;;;;;;;;;19.17;44.37;99172.31;4170063;28;20402;-70
2022/06/14 11:13:11;;;;;;;;;;;;;;;19.21;43.29;99177.91;4190063;28;20376;-70
2022/06/14 11:15:18;;;;;;;;;;;;;;;18.99;43.91;99178.13;4189168;28;19923;-70
2022/06/14 11:17:37;;;;;;;;;;;;;;;19.04;43.43;99174.88;4194912;28;19920;-70